createdAt,value
2022-09-15T00:00:49.642Z,32.60
2022-09-15T00:05:55.076Z,36.45
2022-09-15T00:11:04.373Z,43.75
2022-09-15T00:16:07.472Z,43.03
2022-09-15T00:21:16.485Z,46.55
2022-09-15T00:26:21.894Z,46.92
2022-09-15T00:31:25.410Z,43.87
2022-09-15T00:36:27.215Z,37.92
2022-09-15T00:41:30.699Z,35.42
2022-09-15T00:46:35.469Z,39.47
2022-09-15T00:51:41.160Z,61.28
2022-09-15T00:56:45.223Z,40.30
2022-09-15T01:01:49.521Z,67.35
2022-09-15T01:06:55.549Z,44.50
2022-09-15T01:11:58.833Z,51.78
2022-09-15T01:17:04.849Z,55.95
2022-09-15T01:22:20.866Z,58.95
2022-09-15T01:28:02.727Z,46.67
2022-09-15T01:33:21.349Z,49.47
2022-09-15T01:38:37.941Z,53.42
2022-09-15T01:43:45.293Z,49.25
2022-09-15T01:48:51.174Z,51.03
2022-09-15T01:53:54.436Z,49.17
2022-09-15T01:58:56.199Z,47.38
2022-09-15T02:04:05.157Z,47.05
2022-09-15T02:09:12.331Z,47.90
2022-09-15T02:14:18.241Z,44.85
2022-09-15T02:19:29.684Z,30.55
2022-09-15T02:24:37.332Z,23.80
2022-09-15T02:29:40.027Z,18.55
2022-09-15T02:34:46.100Z,20.30
2022-09-15T02:39:56.203Z,13.48
2022-09-15T02:45:00.439Z,10.07
2022-09-15T02:50:04.327Z,9.45
2022-09-15T02:55:06.937Z,9.57
2022-09-15T03:00:10.221Z,9.88
2022-09-15T03:05:15.027Z,7.70
2022-09-15T03:10:17.364Z,10.40
2022-09-15T03:15:20.960Z,7.82
2022-09-15T03:20:26.301Z,8.43
2022-09-15T03:30:29.721Z,7.97
2022-09-15T03:35:32.785Z,7.75
2022-09-15T03:40:34.642Z,8.00
2022-09-15T03:45:37.307Z,8.80
2022-09-15T03:50:40.548Z,9.23
2022-09-15T04:00:58.676Z,13.95
2022-09-15T04:11:23.046Z,14.43
2022-09-15T04:16:26.510Z,14.75
2022-09-15T04:21:28.228Z,17.33
2022-09-15T04:26:34.017Z,14.82
2022-09-15T04:31:35.786Z,19.83
2022-09-15T04:36:37.564Z,25.67
2022-09-15T04:41:40.602Z,20.37
2022-09-15T04:46:42.323Z,19.70
2022-09-15T04:51:43.988Z,15.63
2022-09-15T05:02:32.084Z,19.02
2022-09-15T05:08:04.540Z,16.80
2022-09-15T05:13:42.572Z,33.03
2022-09-15T05:18:46.174Z,21.50
2022-09-15T05:23:48.259Z,22.92
2022-09-15T05:29:15.885Z,17.70
2022-09-15T05:34:17.793Z,24.45
2022-09-15T05:39:19.580Z,17.77
2022-09-15T05:44:22.850Z,20.33
2022-09-15T05:49:24.659Z,19.48
2022-09-15T05:54:29.504Z,21.98
2022-09-15T05:59:32.728Z,20.33
2022-09-15T06:04:34.422Z,18.55
2022-09-15T06:09:36.164Z,20.25
2022-09-15T06:14:39.293Z,15.38
2022-09-15T06:19:41.021Z,18.08
2022-09-15T06:24:42.730Z,15.18
2022-09-15T06:29:45.808Z,13.88
2022-09-15T06:34:47.527Z,19.08
2022-09-15T06:39:49.299Z,19.12
2022-09-15T06:44:52.551Z,14.15
2022-09-15T06:49:54.278Z,17.60
2022-09-15T06:54:55.966Z,14.70
2022-09-15T06:59:59.050Z,11.65
2022-09-15T07:05:07.605Z,13.05
2022-09-15T07:10:09.899Z,16.05
2022-09-15T07:15:13.009Z,18.75
2022-09-15T07:20:14.834Z,18.17
2022-09-15T07:25:16.730Z,18.40
2022-09-15T07:30:20.063Z,12.98
2022-09-15T07:35:21.765Z,14.98
2022-09-15T07:40:23.653Z,13.48
2022-09-15T07:45:27.066Z,16.58
2022-09-15T07:50:28.854Z,13.48
2022-09-15T07:55:30.554Z,12.60
2022-09-15T08:00:34.032Z,13.68
2022-09-15T08:05:39.431Z,17.58
2022-09-15T08:10:43.094Z,16.67
2022-09-15T08:15:46.417Z,16.40
2022-09-15T08:20:48.406Z,10.90
2022-09-15T08:25:50.174Z,15.05
2022-09-15T08:30:59.708Z,22.70
2022-09-15T08:36:04.437Z,12.55
2022-09-15T08:41:10.947Z,14.23
2022-09-15T08:46:18.464Z,13.68
2022-09-15T08:51:26.009Z,13.13
2022-09-15T08:56:28.936Z,14.27
2022-09-15T09:01:53.972Z,19.98
2022-09-15T09:07:09.582Z,19.95
2022-09-15T09:12:38.473Z,14.93
2022-09-15T09:18:00.041Z,22.48
2022-09-15T09:23:04.206Z,15.52
2022-09-15T09:28:13.083Z,15.15
2022-09-15T09:33:25.329Z,13.25
2022-09-15T09:44:21.828Z,12.40
2022-09-15T09:49:27.044Z,18.45
2022-09-15T09:59:39.796Z,14.35
2022-09-15T10:04:44.369Z,15.48
2022-09-15T10:09:52.060Z,13.77
2022-09-15T10:14:56.638Z,13.90
2022-09-15T10:19:59.784Z,14.00
2022-09-15T10:25:04.200Z,16.33
2022-09-15T10:30:18.079Z,16.07
2022-09-15T10:35:21.330Z,15.05
2022-09-15T10:40:32.166Z,13.60
2022-09-15T10:45:39.240Z,14.55
2022-09-15T10:50:51.760Z,15.63
2022-09-15T10:56:01.925Z,17.45
2022-09-15T11:01:23.565Z,18.25
2022-09-15T11:06:50.107Z,15.15
2022-09-15T11:12:11.076Z,17.15
2022-09-15T11:17:26.923Z,19.12
2022-09-15T11:22:34.399Z,19.02
2022-09-15T11:27:41.920Z,20.08
2022-09-15T11:32:49.266Z,18.45
2022-09-15T11:37:56.551Z,17.17
2022-09-15T11:43:02.542Z,20.02
2022-09-15T11:48:12.424Z,21.17
2022-09-15T11:53:21.777Z,17.52
2022-09-15T11:58:28.834Z,20.70
2022-09-15T12:03:37.339Z,16.58
2022-09-15T12:08:44.220Z,19.00
2022-09-15T12:13:46.256Z,16.17
2022-09-15T12:18:51.947Z,14.10
2022-09-15T12:23:59.789Z,14.85
2022-09-15T12:29:03.313Z,13.10
2022-09-15T12:34:36.299Z,14.82
2022-09-15T12:39:41.929Z,13.07
2022-09-15T12:44:47.541Z,13.10
2022-09-15T12:49:51.312Z,10.93
2022-09-15T12:54:57.721Z,14.82
2022-09-15T13:00:27.359Z,11.27
2022-09-15T13:05:52.422Z,12.02
2022-09-15T13:11:04.506Z,12.63
2022-09-15T13:16:10.205Z,13.75
2022-09-15T13:21:17.356Z,10.52
2022-09-15T13:26:26.707Z,14.45
2022-09-15T13:31:36.802Z,10.63
2022-09-15T13:42:31.025Z,9.85
2022-09-15T13:47:42.553Z,11.00
2022-09-15T13:53:00.492Z,10.35
2022-09-15T14:03:33.525Z,10.57
2022-09-15T14:08:35.400Z,14.35
2022-09-15T14:13:43.450Z,9.80
2022-09-15T14:18:46.396Z,10.27
2022-09-15T14:23:50.731Z,10.50
2022-09-15T14:29:00.840Z,11.07
2022-09-15T14:34:05.078Z,10.25
2022-09-15T14:39:21.155Z,10.60
2022-09-15T14:50:08.421Z,9.60
2022-09-15T14:55:14.941Z,10.05
2022-09-15T15:00:21.528Z,10.45
2022-09-15T15:05:27.184Z,9.60
2022-09-15T15:10:34.923Z,10.68
2022-09-15T15:15:39.358Z,10.45
2022-09-15T15:20:48.728Z,10.40
2022-09-15T15:25:51.189Z,10.05
2022-09-15T15:31:07.564Z,10.43
2022-09-15T15:36:10.472Z,11.50
2022-09-15T15:41:19.498Z,11.35
2022-09-15T15:46:47.242Z,10.85
2022-09-15T15:51:48.987Z,11.00
2022-09-15T15:56:51.224Z,10.65
2022-09-15T16:01:54.385Z,10.65
2022-09-15T16:06:56.290Z,10.48
2022-09-15T16:11:58.461Z,9.57
2022-09-15T16:17:01.634Z,9.70
2022-09-15T16:22:03.426Z,10.43
2022-09-15T16:27:10.316Z,8.23
2022-09-15T16:32:19.008Z,9.73
2022-09-15T16:37:20.701Z,9.38
2022-09-15T16:42:22.372Z,10.38
2022-09-15T16:47:25.443Z,9.88
2022-09-15T16:52:27.193Z,9.15
2022-09-15T16:57:28.908Z,9.10
2022-09-15T17:02:31.923Z,9.32
2022-09-15T17:07:33.600Z,9.02
2022-09-15T17:12:36.620Z,9.85
2022-09-15T17:17:39.623Z,10.98
2022-09-15T17:22:41.499Z,9.43
2022-09-15T17:27:43.537Z,9.40
2022-09-15T17:32:47.048Z,11.07
2022-09-15T17:37:49.345Z,6.40
2022-09-15T17:42:51.022Z,7.50
2022-09-15T17:47:54.303Z,10.35
2022-09-15T17:52:57.082Z,10.57
2022-09-15T17:58:00.444Z,9.23
2022-09-15T18:03:10.513Z,10.40
2022-09-15T18:08:12.279Z,9.80
2022-09-15T18:13:17.632Z,10.80
2022-09-15T18:18:22.653Z,10.27
2022-09-15T18:23:26.242Z,11.40
2022-09-15T18:28:28.020Z,10.48
2022-09-15T18:33:31.205Z,14.05
2022-09-15T18:38:33.140Z,9.70
2022-09-15T18:43:35.680Z,11.00
2022-09-15T18:48:38.777Z,10.52
2022-09-15T18:53:40.426Z,11.15
2022-09-15T18:58:42.218Z,10.18
2022-09-15T19:03:45.634Z,9.07
2022-09-15T19:08:47.420Z,9.75
2022-09-15T19:13:49.118Z,9.25
2022-09-15T19:18:52.366Z,11.27
2022-09-15T19:23:56.207Z,9.70
2022-09-15T19:28:58.304Z,11.90
2022-09-15T19:34:01.551Z,9.57
2022-09-15T19:39:03.922Z,8.48
2022-09-15T19:44:06.061Z,8.93
2022-09-15T19:49:10.758Z,9.52
2022-09-15T19:54:12.472Z,9.23
2022-09-15T19:59:14.214Z,8.57
2022-09-15T20:04:17.306Z,8.95
2022-09-15T20:09:18.983Z,10.20
2022-09-15T20:14:20.726Z,8.15
2022-09-15T20:19:23.906Z,19.45
2022-09-15T20:24:25.613Z,8.68
2022-09-15T20:29:27.384Z,7.90
2022-09-15T20:34:30.462Z,8.65
2022-09-15T20:39:32.506Z,8.48
2022-09-15T20:44:34.188Z,9.40
2022-09-15T20:49:37.255Z,10.27
2022-09-15T20:54:39.016Z,9.57
2022-09-15T20:59:40.708Z,9.30
2022-09-15T21:04:43.848Z,8.23
2022-09-15T21:09:45.615Z,8.48
2022-09-15T21:14:47.396Z,8.20
2022-09-15T21:19:50.499Z,8.63
2022-09-15T21:24:52.171Z,8.45
2022-09-15T21:29:53.921Z,8.75
2022-09-15T21:34:57.194Z,8.70
2022-09-15T21:39:59.053Z,8.60
2022-09-15T21:45:00.761Z,11.60
2022-09-15T21:50:04.268Z,9.27
2022-09-15T21:55:06.616Z,8.98
2022-09-15T22:00:09.758Z,8.48
2022-09-15T22:05:12.900Z,9.20
2022-09-15T22:10:14.766Z,8.73
2022-09-15T22:15:16.670Z,10.98
2022-09-15T22:20:19.775Z,8.60
2022-09-15T22:25:22.095Z,8.85
2022-09-15T22:30:23.921Z,11.10
2022-09-15T22:35:27.002Z,9.90
2022-09-15T22:40:28.815Z,9.25
2022-09-15T22:45:30.645Z,9.90
2022-09-15T22:50:34.046Z,9.18
2022-09-15T22:55:35.752Z,8.90
2022-09-15T23:00:37.995Z,9.38
2022-09-15T23:05:41.112Z,10.43
2022-09-15T23:10:42.832Z,11.55
2022-09-15T23:15:44.546Z,9.45
2022-09-15T23:20:47.603Z,14.45
2022-09-15T23:25:49.356Z,15.43
2022-09-15T23:30:54.986Z,13.68
2022-09-15T23:36:09.556Z,10.85
2022-09-15T23:41:12.548Z,13.23
2022-09-15T23:46:14.402Z,12.85
2022-09-15T23:51:17.681Z,13.05
2022-09-15T23:56:19.457Z,12.52
